Jefferson, Wisconsin
Current Conditions -  °F | °C
As of 6:55 AM on Saturday 20 Dec 2014 (Local Time) from KRYV Reporting Station
Light Snow Light Snow  
Wind Chill: 25°   Ceiling: 3200
Heat Index: 25°   Visibility: 5mi
Dew Point: 24°   Wind: 0mph
Humidity: 94%   Direction: NA
Pressure: 30.26"   Gusts: NA
Location:  43°N, 88.81°W
Report Text: KRYV 201255Z AUTO 00000KT 5SM -SN BKN032 OVC075 M04/M05 A3026 RMK AO2 T10381046
Loading
Personal Weather Stations






























Interactive Weather Map New forecast layout! Learn more

10-Day Weather Forecast

Advertisements
Track Severe Weather on mobile